createdAt,value
2022-11-10T00:01:07.693Z,9.75
2022-11-10T00:03:35.688Z,9.60
2022-11-10T00:06:07.120Z,9.35
2022-11-10T00:08:34.250Z,9.43
2022-11-10T00:11:08.053Z,10.27
2022-11-10T00:13:57.069Z,9.55
2022-11-10T00:16:42.532Z,9.18
2022-11-10T00:19:09.719Z,10.57
2022-11-10T00:21:37.926Z,9.52
2022-11-10T00:24:05.400Z,9.57
2022-11-10T00:26:32.185Z,9.40
2022-11-10T00:28:59.084Z,8.73
2022-11-10T00:31:28.551Z,9.35
2022-11-10T00:33:55.932Z,8.38
2022-11-10T00:36:23.040Z,8.23
2022-11-10T00:38:52.891Z,9.13
2022-11-10T00:41:20.041Z,9.55
2022-11-10T00:43:46.963Z,9.02
2022-11-10T00:46:14.507Z,9.45
2022-11-10T00:48:41.611Z,9.05
2022-11-10T00:51:21.245Z,9.20
2022-11-10T00:53:48.399Z,9.20
2022-11-10T00:56:15.488Z,8.98
2022-11-10T00:58:42.657Z,10.65
2022-11-10T01:01:10.444Z,9.70
2022-11-10T01:03:37.785Z,10.10
2022-11-10T01:06:06.473Z,9.88
2022-11-10T01:08:33.312Z,11.35
2022-11-10T01:11:04.892Z,9.63
2022-11-10T01:13:32.061Z,10.10
2022-11-10T01:16:14.316Z,9.98
2022-11-10T01:21:09.688Z,9.50
2022-11-10T01:23:36.717Z,10.82
2022-11-10T01:26:06.459Z,10.30
2022-11-10T01:28:34.753Z,10.65
2022-11-10T01:31:11.278Z,9.55
2022-11-10T01:33:38.457Z,4.40
2022-11-10T01:36:06.718Z,4.57
2022-11-10T01:38:36.679Z,3.10
2022-11-10T01:41:06.784Z,2.58
2022-11-10T01:43:34.695Z,1.48
2022-11-10T01:46:04.283Z,1.55
2022-11-10T01:48:57.696Z,1.30
2022-11-10T01:51:39.726Z,1.10
2022-11-10T01:54:25.246Z,0.88
2022-11-10T01:56:55.377Z,1.13
2022-11-10T01:59:30.679Z,0.85
2022-11-10T02:02:11.315Z,1.17
2022-11-10T02:04:39.836Z,0.90
2022-11-10T02:07:07.121Z,0.60
2022-11-10T02:09:34.078Z,0.73
2022-11-10T02:12:00.884Z,1.02
2022-11-10T02:14:27.752Z,0.80
2022-11-10T02:16:54.953Z,0.73
2022-11-10T02:19:26.564Z,0.75
2022-11-10T02:21:53.419Z,0.55
2022-11-10T02:24:20.267Z,1.10
2022-11-10T02:26:51.202Z,0.60
2022-11-10T02:29:17.997Z,0.82
2022-11-10T02:31:44.818Z,0.80
2022-11-10T02:34:11.745Z,0.82
2022-11-10T02:36:38.541Z,0.75
2022-11-10T02:39:05.391Z,0.80
2022-11-10T02:41:32.214Z,0.80
2022-11-10T02:43:59.508Z,0.80
2022-11-10T02:46:26.362Z,0.98
2022-11-10T02:48:53.178Z,0.98
2022-11-10T02:51:20.132Z,0.65
2022-11-10T02:53:46.915Z,1.20
2022-11-10T02:56:13.732Z,0.77
2022-11-10T02:58:40.569Z,0.77
2022-11-10T03:01:07.496Z,0.90
2022-11-10T03:03:34.825Z,0.60
2022-11-10T03:06:01.851Z,0.63
2022-11-10T03:08:28.684Z,0.75
2022-11-10T03:10:56.718Z,0.50
2022-11-10T03:13:25.404Z,0.80
2022-11-10T03:15:53.137Z,0.50
2022-11-10T03:18:20.220Z,0.50
2022-11-10T03:20:48.680Z,1.00
2022-11-10T03:23:19.447Z,0.68
2022-11-10T03:25:47.113Z,0.98
2022-11-10T03:28:14.152Z,0.63
2022-11-10T03:30:41.259Z,0.70
2022-11-10T03:33:08.559Z,0.60
2022-11-10T03:35:35.621Z,0.50
2022-11-10T03:38:02.743Z,0.82
2022-11-10T03:40:29.750Z,0.50
2022-11-10T03:42:56.635Z,0.52
2022-11-10T03:45:23.534Z,0.40
2022-11-10T03:47:50.687Z,0.38
2022-11-10T03:50:18.032Z,0.40
2022-11-10T03:52:45.989Z,0.57
2022-11-10T03:55:15.670Z,0.50
2022-11-10T03:57:43.043Z,0.57
2022-11-10T04:00:11.543Z,0.82
2022-11-10T04:02:39.211Z,0.63
2022-11-10T04:05:26.014Z,0.70
2022-11-10T04:08:21.145Z,0.80
2022-11-10T04:10:50.117Z,0.85
2022-11-10T04:13:35.429Z,0.60
2022-11-10T04:16:02.303Z,0.90
2022-11-10T04:18:29.789Z,0.65
2022-11-10T04:21:01.681Z,0.73
2022-11-10T04:23:36.206Z,1.10
2022-11-10T04:26:27.564Z,1.00
2022-11-10T04:29:03.310Z,0.95
2022-11-10T04:31:32.670Z,1.05
2022-11-10T04:34:00.252Z,1.42
2022-11-10T04:36:32.180Z,0.80
2022-11-10T04:38:59.135Z,0.77
2022-11-10T04:41:27.663Z,0.90
2022-11-10T04:43:54.770Z,0.98
2022-11-10T04:46:44.144Z,0.95
2022-11-10T04:49:12.137Z,1.10
2022-11-10T04:51:39.671Z,1.00
2022-11-10T04:54:07.813Z,1.20
2022-11-10T04:56:34.992Z,1.55
2022-11-10T04:59:02.351Z,1.45
2022-11-10T05:01:29.507Z,1.15
2022-11-10T05:03:56.499Z,2.05
2022-11-10T05:06:23.547Z,1.63
2022-11-10T05:08:51.035Z,1.98
2022-11-10T05:11:18.169Z,1.60
2022-11-10T05:13:46.130Z,2.05
2022-11-10T05:16:13.277Z,1.80
2022-11-10T05:18:40.543Z,2.10
2022-11-10T05:21:07.473Z,1.63
2022-11-10T05:23:41.934Z,1.48
2022-11-10T05:26:14.045Z,2.15
2022-11-10T05:31:09.159Z,2.67
2022-11-10T05:33:37.910Z,1.52
2022-11-10T05:36:06.023Z,1.83
2022-11-10T05:38:33.096Z,1.98
2022-11-10T05:41:00.360Z,2.30
2022-11-10T05:43:27.252Z,2.17
2022-11-10T05:45:54.137Z,2.00
2022-11-10T05:48:20.995Z,2.35
2022-11-10T05:50:47.822Z,1.65
2022-11-10T05:53:14.765Z,2.10
2022-11-10T05:55:41.573Z,2.42
2022-11-10T05:58:09.064Z,1.88
2022-11-10T06:00:36.072Z,2.22
2022-11-10T06:03:12.508Z,2.15
2022-11-10T06:05:39.482Z,2.60
2022-11-10T06:08:07.258Z,2.42
2022-11-10T06:10:35.413Z,2.28
2022-11-10T06:13:03.384Z,3.03
2022-11-10T06:15:31.347Z,4.93
2022-11-10T06:17:58.828Z,3.83
2022-11-10T06:20:26.253Z,3.65
2022-11-10T06:23:07.537Z,2.78
2022-11-10T06:25:36.498Z,3.10
2022-11-10T06:28:04.480Z,3.25
2022-11-10T06:30:33.114Z,3.35
2022-11-10T06:33:00.440Z,3.42
2022-11-10T06:35:28.090Z,3.80
2022-11-10T06:38:04.439Z,3.85
2022-11-10T06:40:31.898Z,3.78
2022-11-10T06:42:59.297Z,4.68
2022-11-10T06:45:28.602Z,4.80
2022-11-10T06:48:02.814Z,6.15
2022-11-10T06:50:29.844Z,6.68
2022-11-10T06:52:58.407Z,5.18
2022-11-10T06:55:25.782Z,5.65
2022-11-10T06:57:52.687Z,6.25
2022-11-10T07:00:19.954Z,5.78
2022-11-10T07:02:46.943Z,4.72
2022-11-10T07:05:15.493Z,5.13
2022-11-10T07:07:43.127Z,5.53
2022-11-10T07:10:10.129Z,5.43
2022-11-10T07:12:37.037Z,4.65
2022-11-10T07:15:04.329Z,5.32
2022-11-10T07:17:31.148Z,5.22
2022-11-10T07:19:57.960Z,6.03
2022-11-10T07:22:25.130Z,7.57
2022-11-10T07:24:51.972Z,6.40
2022-11-10T07:27:19.050Z,6.22
2022-11-10T07:29:45.967Z,9.80
2022-11-10T07:32:12.809Z,12.68
2022-11-10T07:34:39.651Z,11.75
2022-11-10T07:37:06.543Z,12.13
2022-11-10T07:39:33.403Z,10.88
2022-11-10T07:42:00.457Z,7.40
2022-11-10T07:44:27.899Z,5.55
2022-11-10T07:46:54.818Z,5.20
2022-11-10T07:49:21.856Z,6.15
2022-11-10T07:51:48.789Z,5.13
2022-11-10T07:54:15.627Z,4.68
2022-11-10T07:56:42.520Z,5.63
2022-11-10T07:59:09.447Z,5.03
2022-11-10T08:01:36.371Z,5.00
2022-11-10T08:04:03.316Z,5.13
2022-11-10T08:06:35.943Z,4.93
2022-11-10T08:09:03.399Z,4.38
2022-11-10T08:11:30.201Z,4.65
2022-11-10T08:13:57.032Z,4.63
2022-11-10T08:16:23.928Z,4.38
2022-11-10T08:18:50.848Z,4.25
2022-11-10T08:21:17.776Z,4.55
2022-11-10T08:23:44.582Z,5.22
2022-11-10T08:26:11.387Z,4.32
2022-11-10T08:28:38.240Z,4.75
2022-11-10T08:31:06.190Z,5.25
2022-11-10T08:33:33.294Z,5.45
2022-11-10T08:36:01.748Z,4.90
2022-11-10T08:38:28.670Z,3.97
2022-11-10T08:40:57.347Z,3.92
2022-11-10T08:43:24.701Z,4.50
2022-11-10T08:45:56.999Z,3.30
2022-11-10T08:50:51.722Z,2.80
2022-11-10T08:53:24.552Z,2.53
2022-11-10T08:55:53.382Z,2.90
2022-11-10T08:58:23.558Z,3.20
2022-11-10T09:00:51.323Z,2.42
2022-11-10T09:03:24.305Z,2.22
2022-11-10T09:05:57.976Z,2.15
2022-11-10T09:08:25.839Z,1.60
2022-11-10T09:10:53.085Z,2.15
2022-11-10T09:13:29.001Z,1.90
2022-11-10T09:16:01.773Z,1.70
2022-11-10T09:18:29.235Z,1.67
2022-11-10T09:20:56.310Z,1.90
2022-11-10T09:23:25.203Z,2.40
2022-11-10T09:25:55.127Z,1.65
2022-11-10T09:28:23.087Z,1.50
2022-11-10T09:30:52.552Z,1.90
2022-11-10T09:33:19.989Z,1.77
2022-11-10T09:35:47.487Z,1.10
2022-11-10T09:38:14.632Z,1.10
2022-11-10T09:40:50.684Z,1.48
2022-11-10T09:43:30.513Z,1.30
2022-11-10T09:46:02.060Z,1.40
2022-11-10T09:48:36.317Z,1.30
2022-11-10T09:51:15.636Z,0.80
2022-11-10T09:53:57.503Z,0.88
2022-11-10T09:56:44.566Z,0.70
2022-11-10T09:59:30.073Z,1.05
2022-11-10T10:02:11.995Z,0.63
2022-11-10T10:05:15.236Z,0.88
2022-11-10T10:08:07.054Z,1.15
2022-11-10T10:11:12.621Z,0.65
2022-11-10T10:14:02.895Z,0.65
2022-11-10T10:16:40.715Z,1.75
2022-11-10T10:19:43.420Z,0.75
2022-11-10T10:22:34.506Z,0.85
2022-11-10T10:25:09.770Z,0.90
2022-11-10T10:27:39.039Z,0.73
2022-11-10T10:30:14.245Z,0.70
2022-11-10T10:32:41.422Z,0.82
2022-11-10T10:35:17.251Z,0.80
2022-11-10T10:37:57.358Z,1.25
2022-11-10T10:40:25.321Z,0.93
2022-11-10T10:42:52.301Z,0.85
2022-11-10T10:45:27.468Z,0.60
2022-11-10T10:47:56.453Z,0.80
2022-11-10T10:50:28.638Z,0.88
2022-11-10T10:53:18.142Z,0.73
2022-11-10T10:55:50.479Z,0.52
2022-11-10T10:58:23.896Z,0.32
2022-11-10T11:01:12.980Z,0.70
2022-11-10T11:03:45.797Z,0.68
2022-11-10T11:06:18.453Z,0.68
2022-11-10T11:09:07.519Z,0.30
2022-11-10T11:11:37.054Z,0.52
2022-11-10T11:14:26.610Z,0.40
2022-11-10T11:17:22.924Z,0.40
2022-11-10T11:19:59.819Z,0.30
2022-11-10T11:22:52.777Z,0.38
2022-11-10T11:25:37.508Z,0.60
2022-11-10T11:28:17.411Z,0.43
2022-11-10T11:31:01.214Z,0.80
2022-11-10T11:33:57.164Z,0.60
2022-11-10T11:36:38.674Z,0.52
2022-11-10T11:39:33.850Z,0.57
2022-11-10T11:42:53.394Z,0.47
2022-11-10T11:45:29.364Z,0.28
2022-11-10T11:48:12.151Z,0.38
2022-11-10T11:50:52.034Z,0.40
2022-11-10T11:53:48.120Z,0.75
2022-11-10T11:56:33.268Z,0.35
2022-11-10T11:59:24.772Z,0.50
2022-11-10T12:02:26.990Z,0.50
2022-11-10T12:05:19.861Z,0.60
2022-11-10T12:08:26.583Z,0.47
2022-11-10T12:11:01.859Z,1.23
2022-11-10T12:13:48.454Z,0.40
2022-11-10T12:16:22.388Z,0.50
2022-11-10T12:19:15.136Z,0.60
2022-11-10T12:22:00.455Z,0.98
2022-11-10T12:24:33.210Z,0.57
2022-11-10T12:27:10.810Z,0.82
2022-11-10T12:29:46.665Z,0.43
2022-11-10T12:32:55.083Z,0.50
2022-11-10T12:35:27.286Z,0.60
2022-11-10T12:38:16.693Z,0.60
2022-11-10T12:40:50.098Z,0.60
2022-11-10T12:43:39.554Z,0.50
2022-11-10T12:46:11.105Z,0.40
2022-11-10T12:48:53.146Z,0.38
2022-11-10T12:53:54.273Z,0.60
2022-11-10T12:56:24.046Z,0.80
2022-11-10T12:59:15.771Z,0.47
2022-11-10T13:01:45.892Z,0.57
2022-11-10T13:04:15.791Z,0.50
2022-11-10T13:07:08.829Z,0.60
2022-11-10T13:09:42.582Z,0.90
2022-11-10T13:12:22.171Z,0.60
2022-11-10T13:14:49.664Z,0.45
2022-11-10T13:17:28.769Z,0.57
2022-11-10T13:20:01.776Z,0.55
2022-11-10T13:22:41.531Z,0.35
2022-11-10T13:25:39.546Z,0.47
2022-11-10T13:28:09.569Z,0.40
2022-11-10T13:30:48.825Z,0.57
2022-11-10T13:33:36.595Z,0.40
2022-11-10T13:36:04.250Z,0.55
2022-11-10T13:38:42.547Z,0.70
2022-11-10T13:41:27.961Z,0.57
2022-11-10T13:43:56.339Z,0.63
2022-11-10T13:46:45.264Z,1.08
2022-11-10T13:49:34.966Z,0.47
2022-11-10T13:52:14.514Z,0.50
2022-11-10T13:54:44.350Z,0.55
2022-11-10T13:57:28.909Z,0.30
2022-11-10T14:00:00.381Z,0.43
2022-11-10T14:02:33.867Z,0.57
2022-11-10T14:05:01.689Z,1.08
2022-11-10T14:07:35.209Z,0.38
2022-11-10T14:10:10.836Z,0.55
2022-11-10T14:12:41.473Z,0.47
2022-11-10T14:15:22.869Z,1.33
2022-11-10T14:17:56.149Z,0.30
2022-11-10T14:20:41.106Z,0.57
2022-11-10T14:23:20.039Z,0.50
2022-11-10T14:25:59.019Z,0.50
2022-11-10T14:28:30.647Z,0.50
2022-11-10T14:30:58.111Z,0.65
2022-11-10T14:33:27.170Z,0.40
2022-11-10T14:36:00.429Z,0.43
2022-11-10T14:38:37.344Z,0.73
2022-11-10T14:41:06.575Z,0.50
2022-11-10T14:43:36.102Z,0.47
2022-11-10T14:46:05.706Z,0.45
2022-11-10T14:48:35.468Z,0.60
2022-11-10T14:51:04.905Z,1.55
2022-11-10T14:53:54.576Z,0.70
2022-11-10T14:56:30.026Z,0.38
2022-11-10T14:58:59.214Z,0.40
2022-11-10T15:01:33.693Z,0.47
2022-11-10T15:04:02.710Z,0.85
2022-11-10T15:06:30.799Z,0.55
2022-11-10T15:08:57.759Z,0.50
2022-11-10T15:11:49.436Z,0.75
2022-11-10T15:14:32.926Z,0.73
2022-11-10T15:17:04.991Z,0.93
2022-11-10T15:19:37.056Z,0.60
2022-11-10T15:22:12.357Z,0.90
2022-11-10T15:24:44.278Z,0.60
2022-11-10T15:29:40.312Z,0.70
2022-11-10T15:32:16.355Z,0.55
2022-11-10T15:34:45.430Z,0.80
2022-11-10T15:37:30.534Z,0.88
2022-11-10T15:40:31.879Z,1.02
2022-11-10T15:43:34.151Z,0.90
2022-11-10T15:46:03.770Z,1.15
2022-11-10T15:48:38.994Z,0.98
2022-11-10T15:51:06.360Z,0.98
2022-11-10T15:53:37.532Z,1.10
2022-11-10T15:56:06.967Z,0.80
2022-11-10T15:58:33.855Z,0.80
2022-11-10T16:01:01.597Z,1.15
2022-11-10T16:03:28.474Z,1.02
2022-11-10T16:05:55.349Z,1.25
2022-11-10T16:08:23.318Z,1.17
2022-11-10T16:10:56.170Z,1.33
2022-11-10T16:13:27.932Z,0.93
2022-11-10T16:15:55.260Z,0.80
2022-11-10T16:18:24.630Z,1.10
2022-11-10T16:20:53.054Z,1.13
2022-11-10T16:23:20.623Z,0.93
2022-11-10T16:25:51.006Z,1.67
2022-11-10T16:28:22.543Z,1.10
2022-11-10T16:30:50.792Z,1.75
2022-11-10T16:33:19.370Z,1.55
2022-11-10T16:35:53.461Z,1.35
2022-11-10T16:38:26.530Z,2.10
2022-11-10T16:41:00.777Z,1.98
2022-11-10T16:43:28.947Z,2.25
2022-11-10T16:45:58.948Z,2.05
2022-11-10T16:48:34.203Z,2.08
2022-11-10T16:51:02.240Z,2.15
2022-11-10T16:53:31.079Z,2.85
2022-11-10T16:55:58.391Z,2.42
2022-11-10T16:58:27.311Z,2.22
2022-11-10T17:00:58.162Z,2.33
2022-11-10T17:03:42.181Z,2.72
2022-11-10T17:06:14.539Z,2.90
2022-11-10T17:08:42.429Z,2.20
2022-11-10T17:11:10.075Z,2.90
2022-11-10T17:13:36.983Z,3.00
2022-11-10T17:16:07.894Z,3.20
2022-11-10T17:18:35.606Z,3.47
2022-11-10T17:21:05.260Z,3.47
2022-11-10T17:23:35.332Z,3.15
2022-11-10T17:26:02.678Z,3.20
2022-11-10T17:28:29.601Z,4.25
2022-11-10T17:30:56.591Z,3.65
2022-11-10T17:33:23.706Z,4.40
2022-11-10T17:35:52.669Z,5.10
2022-11-10T17:38:30.889Z,7.65
2022-11-10T17:40:57.927Z,9.77
2022-11-10T17:43:25.407Z,9.55
2022-11-10T17:45:52.739Z,12.55
2022-11-10T17:48:19.561Z,9.10
2022-11-10T17:50:49.225Z,9.95
2022-11-10T17:53:16.705Z,9.05
2022-11-10T17:55:43.610Z,11.38
2022-11-10T17:58:10.539Z,10.27
2022-11-10T18:00:37.783Z,6.57
2022-11-10T18:03:08.613Z,4.20
2022-11-10T18:05:37.549Z,3.22
2022-11-10T18:08:04.616Z,4.03
2022-11-10T18:10:31.531Z,5.15
2022-11-10T18:12:58.442Z,5.38
2022-11-10T18:15:25.266Z,10.27
2022-11-10T18:17:52.176Z,10.40
2022-11-10T18:20:18.958Z,8.32
2022-11-10T18:22:45.831Z,8.55
2022-11-10T18:25:12.990Z,6.28
2022-11-10T18:27:39.999Z,6.35
2022-11-10T18:30:07.561Z,7.20
2022-11-10T18:32:34.540Z,8.30
2022-11-10T18:35:01.464Z,11.45
2022-11-10T18:37:28.321Z,10.70
2022-11-10T18:39:55.279Z,10.23
2022-11-10T18:42:23.212Z,11.57
2022-11-10T18:44:52.026Z,12.70
2022-11-10T18:47:19.692Z,10.93
2022-11-10T18:49:46.546Z,10.63
2022-11-10T18:52:13.450Z,11.23
2022-11-10T18:54:40.328Z,11.40
2022-11-10T18:57:07.165Z,8.98
2022-11-10T18:59:33.991Z,10.27
2022-11-10T19:02:00.998Z,9.20
2022-11-10T19:04:27.999Z,11.20
2022-11-10T19:06:54.954Z,16.20
2022-11-10T19:09:21.859Z,12.70
2022-11-10T19:11:48.765Z,10.15
2022-11-10T19:14:15.599Z,14.65
2022-11-10T19:16:42.433Z,9.98
2022-11-10T19:19:10.581Z,11.68
2022-11-10T19:21:37.406Z,11.18
2022-11-10T19:24:04.563Z,13.30
2022-11-10T19:26:32.861Z,13.57
2022-11-10T19:29:00.011Z,13.27
2022-11-10T19:31:27.344Z,11.93
2022-11-10T19:33:56.345Z,14.35
2022-11-10T19:36:26.157Z,11.68
2022-11-10T19:38:56.909Z,12.27
2022-11-10T19:41:29.403Z,11.30
2022-11-10T19:43:56.732Z,10.73
2022-11-10T19:46:27.706Z,11.48
2022-11-10T19:48:55.535Z,10.90
2022-11-10T19:51:24.211Z,9.38
2022-11-10T19:53:58.166Z,8.85
2022-11-10T19:56:30.440Z,10.00
2022-11-10T19:58:59.237Z,8.55
2022-11-10T20:01:26.563Z,9.90
2022-11-10T20:03:53.586Z,8.00
2022-11-10T20:06:22.655Z,8.18
2022-11-10T20:08:50.247Z,7.35
2022-11-10T20:11:21.377Z,7.20
2022-11-10T20:13:54.945Z,5.93
2022-11-10T20:16:22.317Z,6.95
2022-11-10T20:18:49.175Z,7.00
2022-11-10T20:21:20.277Z,6.80
2022-11-10T20:23:55.773Z,8.60
2022-11-10T20:26:24.241Z,8.57
2022-11-10T20:28:51.356Z,8.52
2022-11-10T20:31:21.826Z,8.88
2022-11-10T20:33:49.641Z,8.32
2022-11-10T20:36:22.486Z,7.22
2022-11-10T20:38:50.547Z,8.60
2022-11-10T20:41:20.905Z,7.85
2022-11-10T20:43:48.489Z,6.95
2022-11-10T20:46:40.257Z,7.60
2022-11-10T20:49:06.288Z,6.68
2022-11-10T20:51:33.187Z,7.82
2022-11-10T20:54:01.355Z,6.43
2022-11-10T20:56:29.942Z,6.40
2022-11-10T20:58:57.140Z,7.00
2022-11-10T21:01:24.508Z,9.00
2022-11-10T21:03:51.975Z,11.65
2022-11-10T21:06:19.220Z,7.97
2022-11-10T21:08:46.193Z,8.20
2022-11-10T21:11:33.019Z,7.45
2022-11-10T21:14:01.525Z,6.28
2022-11-10T21:16:28.823Z,6.97
2022-11-10T21:18:56.453Z,6.63
2022-11-10T21:21:34.052Z,6.55
2022-11-10T21:29:07.757Z,6.72
2022-11-10T21:31:34.646Z,7.10
2022-11-10T21:34:01.450Z,6.20
2022-11-10T21:36:29.717Z,6.47
2022-11-10T21:38:57.699Z,7.35
2022-11-10T21:41:25.296Z,7.18
2022-11-10T21:43:52.115Z,8.70
2022-11-10T21:46:19.375Z,13.15
2022-11-10T21:48:46.239Z,15.93
2022-11-10T21:51:14.377Z,11.68
2022-11-10T21:53:44.439Z,11.25
2022-11-10T21:56:12.154Z,11.52
2022-11-10T21:58:39.699Z,12.82
2022-11-10T22:01:06.697Z,14.90
2022-11-10T22:03:34.821Z,16.13
2022-11-10T22:06:16.243Z,16.10
2022-11-10T22:08:46.037Z,12.07
2022-11-10T22:11:38.990Z,9.85
2022-11-10T22:14:31.007Z,9.13
2022-11-10T22:17:17.757Z,8.20
2022-11-10T22:19:45.109Z,7.63
2022-11-10T22:22:14.322Z,6.80
2022-11-10T22:24:41.448Z,7.28
2022-11-10T22:27:08.724Z,7.65
2022-11-10T22:29:35.617Z,9.43
2022-11-10T22:32:03.382Z,10.30
2022-11-10T22:34:30.473Z,8.70
2022-11-10T22:36:59.565Z,8.65
2022-11-10T22:39:46.696Z,8.27
2022-11-10T22:42:32.219Z,10.02
2022-11-10T22:44:59.210Z,8.93
2022-11-10T22:47:26.047Z,8.55
2022-11-10T22:49:53.115Z,8.57
2022-11-10T22:52:19.936Z,8.45
2022-11-10T22:54:46.746Z,8.13
2022-11-10T22:57:13.550Z,8.05
2022-11-10T22:59:40.464Z,7.10
2022-11-10T23:02:07.322Z,7.85
2022-11-10T23:04:34.113Z,9.18
2022-11-10T23:07:01.020Z,8.95
2022-11-10T23:09:27.810Z,8.63
2022-11-10T23:11:54.601Z,8.38
2022-11-10T23:14:21.360Z,8.45
2022-11-10T23:16:48.183Z,8.35
2022-11-10T23:19:15.117Z,9.25
2022-11-10T23:21:41.935Z,9.52
2022-11-10T23:24:09.068Z,8.90
2022-11-10T23:26:35.885Z,8.20
2022-11-10T23:29:02.749Z,7.63
2022-11-10T23:31:29.632Z,8.35
2022-11-10T23:33:57.580Z,7.35
2022-11-10T23:36:25.905Z,8.38
2022-11-10T23:38:53.959Z,7.65
2022-11-10T23:41:26.258Z,8.50
2022-11-10T23:43:53.536Z,7.82
2022-11-10T23:46:20.595Z,7.10
2022-11-10T23:48:47.534Z,7.45
2022-11-10T23:51:14.933Z,7.75
2022-11-10T23:53:42.371Z,7.47
2022-11-10T23:56:13.608Z,6.53
2022-11-10T23:58:40.870Z,6.53
